Weather observations for the past three days for
Albuquerque, Double Eagle II Airport
Imperial (Metric)
Date Time (mdt) Wind (mph) Vis. (mi.) Weather Sky Cond. Temperature (ºF) Relative Humidity Wind Chill (°F) Heat Index (°F) Pressure Precipitation (in)
Air Dwpt 6 hour altimeter (in) sea level (mb) 1 hr 3 hr 6 hr
Max. Min.
08 05:35 Calm 10.00 Fair CLR 44.8 13.6 28% 30.06 0.0
08 05:15 S 3 10.00 Fair CLR 43.5 13.8 30% 30.06 0.0
08 04:55 S 3 10.00 Fair CLR 48 13.6 25% 30.06 0.0
08 04:35 Calm 10.00 Fair CLR 43.7 14.4 30% 30.05 0.0
08 04:15 W 6 10.00 Fair CLR 43.9 14.2 30% 41 30.05 0.0
08 03:55 NW 5 10.00 Fair CLR 42.4 14 31% 40 30.04 0.0
08 03:35 NW 7 10.00 Fair CLR 45.7 13.6 27% 43 30.05 0.0
08 03:15 NW 6 10.00 Fair CLR 50.2 12.2 22% 30.04 0.0
08 02:55 Calm 10.00 Fair CLR 53.2 11.5 19% 30.05 0.0
08 02:35 E 3 10.00 Fair CLR 46.9 12.4 25% 30.05 0.0
08 02:15 W 6 10.00 Fair CLR 44.1 12 27% 41 30.05 0.0
08 01:55 W 6 10.00 Fair CLR 45.5 10.9 24% 43 30.05 0.0
08 01:35 NW 8 10.00 Fair CLR 50.9 9.5 19% 30.06 0.0
08 01:15 W 9 10.00 Fair CLR 46.9 10.4 23% 43 30.06 0.0
08 00:55 NW 6 10.00 Fair CLR 47.7 10.4 22% 45 30.06 0.0
08 00:35 W 6 10.00 Fair CLR 48 10.2 21% 46 30.06 0.0
08 00:15 W 8 10.00 Fair CLR 49.3 9.5 20% 46 30.07 0.0
07 23:55 W 8 10.00 Fair CLR 50.7 9.7 72.3 46.8 19% 30.06 0.0
07 23:35 W 7 10.00 Fair CLR 51.3 8.4 18% 30.06 0.0
07 23:15 W 8 10.00 Fair CLR 50.7 7.7 17% 30.07 0.0
07 22:55 SW 10 10.00 Fair CLR 52.2 7 16% 30.06 0.0
07 22:35 W 9 10.00 Fair CLR 54.3 6.1 14% 30.07 0.0
07 22:15 SW 7 10.00 Fair CLR 48.7 8.6 19% 46 30.06 0.0
07 21:55 W 3 10.00 Fair CLR 52 6.8 16% 30.06 0.0
07 21:35 NW 6 10.00 Fair CLR 53.8 6.1 14% 30.06 0.0
07 21:15 NW 6 10.00 Fair CLR 57.7 3.4 11% 30.05 0.0
07 19:49 N 8 10.00 Fair CLR 66.2 10.4 11% 30.02 0.0
07 18:55 SW 8 10.00 Fair CLR 69.8 8.6 9% 30 0.0
07 17:50 SW 7 10.00 Fair CLR 71.6 8.6 8% 30 0.0
07 16:47 NW 6 10.00 Fair CLR 71.6 6.8 8% 30.03 0.0
07 15:47 NW 6 10.00 Fair CLR 71.6 1.4 6% 30.05 0.0
07 14:50 W 7 10.00 Fair CLR 68 6.8 9% 30.08 0.0
07 13:50 W 6 10.00 Fair CLR 66.2 10.4 11% 30.11 0.0
07 12:48 N 5 10.00 Fair CLR 62.6 14 15% 30.14 0.0
07 11:48 N 5 10.00 Fair CLR 59 21.2 23% 30.17 0.0
07 10:50 N 8 10.00 Fair CLR 55.4 21.2 26% 30.19 0.0
07 09:47 N 7 10.00 Fair CLR 51.8 24.8 35% 30.21 0.0
07 08:50 N 13 10.00 Fair CLR 48.2 24.8 40% 43 30.21 0.0
07 07:47 N 16 10.00 Fair CLR 42.8 26.6 53% 36 30.21 0.0
07 06:50 N 13 10.00 Fair CLR 41 30.2 66% 34 30.2 0.0
07 05:50 NW 8 10.00 Fair CLR 37.4 28.4 70% 32 30.19 0.0
07 05:30 N 9 10.00 Fair CLR 37 27.3 68% 31 30.19 0.0
07 05:10 N 9 10.00 Fair CLR 38.1 26.2 62% 32 30.19 0.0
07 04:50 N 10 10.00 Fair CLR 39 25.2 58% 33 30.19 0.0
07 04:30 N 10 10.00 Fair CLR 39.2 21.9 50% 33 30.19 0.0
07 04:10 N 10 10.00 Fair CLR 39 18.5 44% 33 30.19 0.0
07 03:50 N 9 10.00 Fair CLR 37.8 15.8 41% 32 30.19 0.0
07 03:30 NW 10 10.00 Fair CLR 39.2 14.9 37% 33 30.19 0.0
07 03:10 N 7 10.00 Fair CLR 36.5 15.1 41% 32 30.19 0.0
07 02:50 NE 7 10.00 Fair CLR 39.4 14.9 37% 35 30.19 0.0
07 02:30 E 6 10.00 Fair CLR 41 15.3 35% 38 30.19 0.0
07 02:10 NW 10 10.00 Fair CLR 42.4 15.4 33% 37 30.17 0.0
07 01:50 NW 10 10.00 Fair CLR 41.5 15.6 35% 36 30.17 0.0
07 01:30 W 10 10.00 Fair CLR 41 15.6 36% 35 30.17 0.0
07 01:10 NW 8 10.00 Fair CLR 42.1 15.8 34% 38 30.17 0.0
07 00:50 NW 9 10.00 Fair CLR 43.3 15.8 33% 39 30.17 0.0
07 00:30 NW 10 10.00 Fair CLR 43.5 16.3 33% 38 30.17 0.0
07 00:10 NW 5 10.00 Fair CLR 40.5 17.1 39% 38 30.17 0.0
06 23:50 NW 9 10.00 Fair CLR 45.9 16.5 59 45.9 31% 42 30.16 0.0
06 23:30 NW 12 10.00 Fair CLR 48.2 15.8 27% 44 30.16 0.0
06 23:10 NW 9 10.00 Fair CLR 48.9 16.5 27% 45 30.16 0.0
06 22:50 NW 10 10.00 Fair CLR 49.5 18.5 29% 46 30.15 0.0
06 22:30 NW 10 10.00 Fair CLR 49.1 22.8 36% 45 30.15 0.0
06 22:10 NW 8 10.00 Fair CLR 48.2 26.8 43% 45 30.15 0.0
06 21:50 NW 7 10.00 Fair CLR 49.3 28.6 45% 47 30.13 0.0
06 21:30 NW 7 10.00 Fair CLR 51.4 28.8 42% 30.12 0.0
06 21:10 NW 8 10.00 Fair CLR 50.9 29.1 43% 30.11 0.0
06 20:50 W 6 10.00 Partly Cloudy SCT090 50 28.4 43% 48 30.09 0.0
06 19:50 NW 12 10.00 Fair CLR 55.4 30.2 38% 30.07 0.0
06 18:50 NW 17 G 23 10.00 Partly Cloudy SCT070 SCT110 57.2 32 39% 30.05 0.0
06 17:50 NW 18 G 37 10.00 Light Rain SCT022 BKN070 BKN090 59 32 36% 30.03 0.0
06 16:50 NW 22 G 28 10.00 Overcast and Breezy SCT090 OVC110 62.6 28.4 27% 29.98 0.0
06 15:50 SW 10 G 24 10.00 Light Rain SCT027 BKN090 OVC110 64.4 30.2 28% 29.97 0.0
06 14:50 SW 17 G 24 10.00 Mostly Cloudy BKN110 68 26.6 21% 29.98 0.0
06 13:47 W 16 G 23 10.00 Mostly Cloudy BKN100 64.4 26.6 24% 29.98 0.0
06 12:50 SW 6 G 26 10.00 Partly Cloudy SCT060 SCT080 60.8 28.4 29% 30 0.0
06 11:47 W 10 10.00 Partly Cloudy SCT060 SCT070 59 30.2 34% 30.02 0.0
06 10:47 W 8 10.00 Fair CLR 55.4 30.2 38% 30.03 0.0
06 09:47 SW 14 10.00 Fair CLR 51.8 30.2 44% 30.02 0.0
06 08:47 SW 14 10.00 Fair CLR 48.2 30.2 50% 43 30.03 0.0
06 07:47 SW 13 10.00 A Few Clouds FEW070 46.4 32 57% 41 30.03 0.0
06 06:47 S 9 10.00 Mostly Cloudy BKN050 41 32 70% 36 30.02 0.0
06 05:30 SW 8 10.00 Fair CLR 37.4 30.9 77% 32 29.99 0.0
06 05:10 SW 9 10.00 Fair CLR 37.4 31.6 80% 31 29.99 0.0
06 04:50 SW 7 10.00 Fair CLR 37.6 31.8 80% 33 29.99 0.0
06 04:30 SW 8 10.00 Fair CLR 39.2 32 75% 34 29.99 0.0
06 04:10 SW 9 10.00 Fair CLR 39 32 76% 33 29.98 0.0
06 03:50 SW 9 10.00 Fair CLR 38.5 32.2 78% 33 29.98 0.0
06 03:30 SW 7 10.00 Fair CLR 38.5 32.4 79% 34 29.98 0.0
06 03:10 SW 9 10.00 Fair CLR 36.9 32.4 84% 31 29.97 0.0
06 02:50 W 6 10.00 Fair CLR 38.8 32.4 78% 35 29.97 0.0
06 02:30 Calm 10.00 Fair CLR 40.6 33.4 76% 29.98 0.0
06 02:10 SW 8 10.00 Fair CLR 38.7 33.3 81% 34 29.98 0.0
06 01:50 SW 3 10.00 Fair CLR 41.2 34 76% 29.98 0.0
06 01:30 SE 5 10.00 Fair CLR 41 34.2 77% 38 29.98 0.0
06 01:10 Calm 10.00 Fair CLR 39.7 34.2 81% 29.99 0.0
06 00:50 Calm 10.00 Fair CLR 42.1 35.2 77% 29.99 0.0
06 00:30 SW 7 10.00 Fair CLR 42.1 35.2 77% 38 29.99 0.0
06 00:10 W 7 10.00 Fair CLR 43.9 35.4 72% 40 29.98 0.0
05 23:50 W 7 10.00 Partly Cloudy SCT090 44.2 35.8 57.7 44.2 72% 41 29.98 0.0
05 23:30 W 6 10.00 Mostly Cloudy SCT055 BKN090 45.5 36.7 71% 43 29.97 0.0
05 23:10 Calm 10.00 Overcast BKN055 OVC090 45.1 36.9 73% 29.98 0.0
05 22:50 Calm 10.00 Mostly Cloudy BKN090 BKN110 44.8 36 71% 29.98 0.0
05 22:30 Calm 10.00 Partly Cloudy SCT110 47.3 36.5 66% 29.97 0.0
05 22:10 NW 6 10.00 Fair CLR 48.2 36.5 64% 46 29.96 0.0
05 21:50 NW 13 10.00 Fair CLR 48.6 37.4 65% 44 29.96 0.0
05 21:30 NW 13 10.00 Partly Cloudy SCT060 SCT070 SCT085 49.3 37 63% 45 29.95 0.0
05 21:10 NW 10 10.00 Mostly Cloudy BKN060 BKN075 BKN095 48.9 38.1 66% 45 29.95 0.0
05 19:45 W 8 10.00 Mostly Cloudy SCT085 BKN100 53.6 39.2 58% 29.88 0.0
05 16:45 NW 12 10.00 Fair CLR 59 39.2 48% 29.87 0.0
05 12:47 W 8 10.00 Showers in Vicinity OVC036 53.6 37.4 54% 29.94 0.0
05 12:18 W 6 10.00 Overcast BKN060 OVC080 53.6 37.4 54% 29.94 0.0
05 09:47 NW 20 10.00 Overcast SCT060 OVC070 50 39.2 67% 44 29.94 0.0
05 08:50 NW 10 10.00 Overcast BKN046 OVC050 50 39.2 67% 46 29.96 0.0
05 07:47 W 9 10.00 Overcast SCT060 OVC070 53.6 30.2 41% 29.96 0.0
05 06:47 W 7 10.00 Mostly Cloudy BKN090 53.6 30.2 41% 29.93 0.0
Date Time (mdt) Wind (mph) Vis. (mi.) Weather Sky Cond. Air Dwpt Max. Min. Relative Humidity Wind Chill (°F) Heat Index (°F) altimeter (in) sea level (mb) 1 hr 3 hr 6 hr
6 hour
Temperature (ºF) Pressure Precipitation (in)